createdAt,value
2023-03-29T00:00:37.646Z,965.84
2023-03-29T00:01:37.627Z,965.82
2023-03-29T00:02:37.706Z,965.81
2023-03-29T00:03:37.694Z,965.81
2023-03-29T00:04:37.615Z,965.81
2023-03-29T00:05:37.599Z,965.84
2023-03-29T00:06:37.584Z,965.89
2023-03-29T00:07:37.558Z,965.90
2023-03-29T00:08:37.542Z,965.87
2023-03-29T00:09:37.531Z,965.89
2023-03-29T00:10:37.561Z,965.91
2023-03-29T00:11:37.522Z,965.90
2023-03-29T00:12:37.525Z,965.88
2023-03-29T00:13:37.482Z,965.91
2023-03-29T00:14:37.473Z,965.93
2023-03-29T00:15:37.484Z,965.93
2023-03-29T00:16:37.499Z,965.94
2023-03-29T00:17:37.483Z,965.93
2023-03-29T00:18:37.436Z,965.92
2023-03-29T00:19:37.451Z,965.90
2023-03-29T00:20:37.435Z,965.84
2023-03-29T00:21:37.426Z,965.80
2023-03-29T00:22:37.420Z,965.74
2023-03-29T00:23:37.381Z,965.72
2023-03-29T00:24:37.384Z,965.72
2023-03-29T00:25:37.392Z,965.75
2023-03-29T00:26:37.352Z,965.76
2023-03-29T00:27:37.358Z,965.72
2023-03-29T00:28:37.338Z,965.69
2023-03-29T00:29:37.347Z,965.65
2023-03-29T00:30:37.355Z,965.60
2023-03-29T00:31:37.324Z,965.58
2023-03-29T00:32:37.377Z,965.58
2023-03-29T00:33:37.272Z,965.59
2023-03-29T00:34:37.284Z,965.60
2023-03-29T00:35:37.311Z,965.61
2023-03-29T00:36:37.248Z,965.59
2023-03-29T00:37:37.246Z,965.58
2023-03-29T00:38:37.252Z,965.56
2023-03-29T00:39:37.223Z,965.58
2023-03-29T00:40:37.241Z,965.59
2023-03-29T00:41:37.188Z,965.59
2023-03-29T00:42:37.196Z,965.59
2023-03-29T00:43:37.207Z,965.59
2023-03-29T00:44:37.165Z,965.57
2023-03-29T00:45:37.163Z,965.53
2023-03-29T00:46:37.195Z,965.48
2023-03-29T00:47:37.207Z,965.46
2023-03-29T00:48:37.142Z,965.43
2023-03-29T00:49:37.124Z,965.41
2023-03-29T00:50:37.125Z,965.36
2023-03-29T00:51:37.111Z,965.39
2023-03-29T00:52:37.097Z,965.42
2023-03-29T00:53:37.085Z,965.44
2023-03-29T00:54:37.064Z,965.49
2023-03-29T00:55:37.068Z,965.54
2023-03-29T00:56:37.302Z,965.54
2023-03-29T00:57:37.033Z,965.50
2023-03-29T00:58:37.030Z,965.45
2023-03-29T00:59:37.014Z,965.45
2023-03-29T01:00:37.006Z,965.40
2023-03-29T01:01:37.061Z,965.40
2023-03-29T01:02:37.054Z,965.36
2023-03-29T01:03:37.049Z,965.31
2023-03-29T01:04:36.961Z,965.24
2023-03-29T01:05:36.980Z,965.17
2023-03-29T01:06:36.967Z,965.14
2023-03-29T01:07:36.950Z,965.18
2023-03-29T01:08:36.932Z,965.21
2023-03-29T01:09:36.924Z,965.20
2023-03-29T01:10:36.960Z,965.18
2023-03-29T01:11:36.896Z,965.16
2023-03-29T01:12:36.886Z,965.14
2023-03-29T01:13:36.999Z,965.11
2023-03-29T01:14:36.853Z,965.09
2023-03-29T01:15:36.885Z,965.13
2023-03-29T01:16:36.875Z,965.15
2023-03-29T01:17:36.857Z,965.14
2023-03-29T01:18:36.808Z,965.13
2023-03-29T01:19:36.811Z,965.15
2023-03-29T01:20:36.821Z,965.16
2023-03-29T01:21:36.786Z,965.17
2023-03-29T01:22:36.804Z,965.14
2023-03-29T01:23:36.792Z,965.13
2023-03-29T01:24:36.752Z,965.15
2023-03-29T01:25:36.758Z,965.14
2023-03-29T01:26:36.779Z,965.17
2023-03-29T01:27:36.742Z,965.17
2023-03-29T01:28:36.718Z,965.21
2023-03-29T01:29:36.712Z,965.19
2023-03-29T01:30:36.715Z,965.16
2023-03-29T01:31:36.786Z,965.12
2023-03-29T01:32:36.678Z,965.11
2023-03-29T01:33:36.669Z,965.11
2023-03-29T01:34:36.654Z,965.12
2023-03-29T01:35:36.691Z,965.14
2023-03-29T01:36:36.622Z,965.11
2023-03-29T01:37:36.645Z,965.06
2023-03-29T01:38:36.610Z,965.02
2023-03-29T01:39:36.618Z,965.01
2023-03-29T01:40:36.617Z,965.00
2023-03-29T01:41:36.590Z,965.01
2023-03-29T01:42:36.587Z,965.02
2023-03-29T01:43:36.571Z,965.03
2023-03-29T01:44:36.551Z,964.99
2023-03-29T01:45:36.554Z,964.96
2023-03-29T01:46:36.553Z,964.93
2023-03-29T01:47:36.568Z,964.87
2023-03-29T01:48:36.549Z,964.81
2023-03-29T01:49:36.504Z,964.79
2023-03-29T01:50:36.513Z,964.74
2023-03-29T01:51:36.472Z,964.70
2023-03-29T01:52:36.472Z,964.65
2023-03-29T01:53:36.484Z,964.60
2023-03-29T01:54:36.439Z,964.56
2023-03-29T01:55:36.442Z,964.53
2023-03-29T01:56:36.435Z,964.51
2023-03-29T01:57:36.419Z,964.53
2023-03-29T01:58:36.395Z,964.53
2023-03-29T01:59:36.424Z,964.55
2023-03-29T02:00:36.562Z,964.59
2023-03-29T02:01:36.466Z,964.60
2023-03-29T02:02:36.445Z,964.63
2023-03-29T02:03:36.370Z,964.66
2023-03-29T02:04:36.350Z,964.65
2023-03-29T02:05:36.355Z,964.62
2023-03-29T02:06:36.333Z,964.61
2023-03-29T02:07:36.333Z,964.58
2023-03-29T02:08:36.291Z,964.56
2023-03-29T02:09:36.287Z,964.55
2023-03-29T02:10:36.309Z,964.52
2023-03-29T02:11:36.296Z,964.49
2023-03-29T02:12:36.304Z,964.48
2023-03-29T02:13:36.266Z,964.49
2023-03-29T02:14:36.249Z,964.54
2023-03-29T02:15:36.279Z,964.54
2023-03-29T02:16:36.217Z,964.51
2023-03-29T02:17:36.277Z,964.50
2023-03-29T02:18:36.207Z,964.44
2023-03-29T02:19:36.193Z,964.40
2023-03-29T02:20:36.196Z,964.36
2023-03-29T02:21:36.185Z,964.36
2023-03-29T02:22:36.187Z,964.38
2023-03-29T02:23:36.196Z,964.37
2023-03-29T02:24:36.153Z,964.35
2023-03-29T02:25:36.173Z,964.32
2023-03-29T02:26:36.175Z,964.27
2023-03-29T02:27:36.104Z,964.25
2023-03-29T02:28:36.129Z,964.23
2023-03-29T02:29:36.107Z,964.23
2023-03-29T02:30:36.079Z,964.26
2023-03-29T02:31:36.201Z,964.27
2023-03-29T02:32:36.103Z,964.27
2023-03-29T02:33:36.071Z,964.25
2023-03-29T02:34:36.092Z,964.22
2023-03-29T02:35:36.101Z,964.22
2023-03-29T02:36:36.035Z,964.20
2023-03-29T02:37:36.023Z,964.18
2023-03-29T02:38:35.985Z,964.18
2023-03-29T02:39:36.035Z,964.16
2023-03-29T02:40:36.013Z,964.16
2023-03-29T02:41:35.979Z,964.10
2023-03-29T02:42:35.979Z,964.11
2023-03-29T02:43:35.982Z,964.09
2023-03-29T02:44:35.962Z,964.11
2023-03-29T02:45:35.971Z,964.10
2023-03-29T02:46:35.938Z,964.12
2023-03-29T02:47:35.974Z,964.10
2023-03-29T02:48:35.897Z,964.03
2023-03-29T02:49:35.892Z,963.97
2023-03-29T02:50:35.899Z,963.93
2023-03-29T02:51:35.880Z,963.91
2023-03-29T02:52:35.876Z,963.88
2023-03-29T02:53:35.892Z,963.87
2023-03-29T02:54:35.840Z,963.89
2023-03-29T02:55:35.891Z,963.87
2023-03-29T02:56:35.819Z,963.83
2023-03-29T02:57:35.967Z,963.79
2023-03-29T02:58:35.804Z,963.78
2023-03-29T02:59:35.851Z,963.78
2023-03-29T03:00:35.811Z,963.82
2023-03-29T03:01:35.805Z,963.86
2023-03-29T03:02:35.839Z,963.88
2023-03-29T03:03:36.079Z,963.87
2023-03-29T03:04:35.833Z,963.83
2023-03-29T03:05:35.771Z,963.82
2023-03-29T03:06:35.736Z,963.88
2023-03-29T03:07:35.725Z,963.90
2023-03-29T03:08:35.704Z,963.92
2023-03-29T03:09:35.688Z,963.93
2023-03-29T03:10:35.711Z,963.93
2023-03-29T03:11:35.713Z,963.93
2023-03-29T03:12:35.680Z,963.91
2023-03-29T03:13:35.658Z,963.92
2023-03-29T03:14:35.638Z,963.92
2023-03-29T03:15:35.846Z,963.92
2023-03-29T03:16:35.697Z,963.91
2023-03-29T03:17:35.690Z,963.92
2023-03-29T03:18:35.624Z,963.93
2023-03-29T03:19:35.653Z,963.94
2023-03-29T03:20:35.644Z,963.94
2023-03-29T03:21:35.668Z,963.94
2023-03-29T03:22:35.577Z,963.95
2023-03-29T03:23:35.577Z,963.94
2023-03-29T03:24:35.596Z,963.95
2023-03-29T03:25:35.632Z,963.96
2023-03-29T03:26:35.625Z,963.97
2023-03-29T03:27:35.510Z,963.98
2023-03-29T03:28:35.533Z,963.96
2023-03-29T03:29:35.515Z,963.94
2023-03-29T03:30:35.496Z,963.95
2023-03-29T03:31:35.509Z,963.95
2023-03-29T03:32:35.476Z,963.96
2023-03-29T03:33:35.455Z,963.95
2023-03-29T03:34:35.460Z,963.95
2023-03-29T03:35:35.477Z,963.95
2023-03-29T03:36:35.426Z,963.95
2023-03-29T03:37:35.412Z,963.94
2023-03-29T03:38:35.418Z,963.93
2023-03-29T03:39:35.404Z,963.91
2023-03-29T03:40:35.395Z,963.91
2023-03-29T03:41:35.390Z,963.93
2023-03-29T03:42:35.363Z,963.96
2023-03-29T03:43:35.356Z,963.98
2023-03-29T03:44:35.359Z,963.98
2023-03-29T03:45:35.361Z,963.96
2023-03-29T03:46:35.319Z,963.94
2023-03-29T03:47:35.372Z,963.93
2023-03-29T03:48:35.325Z,963.94
2023-03-29T03:49:35.309Z,963.95
2023-03-29T03:50:35.281Z,963.95
2023-03-29T03:51:35.289Z,963.96
2023-03-29T03:52:35.265Z,963.92
2023-03-29T03:53:35.255Z,963.93
2023-03-29T03:54:35.257Z,963.92
2023-03-29T03:55:35.249Z,963.93
2023-03-29T03:56:35.246Z,963.92
2023-03-29T03:57:35.242Z,963.92
2023-03-29T03:58:35.185Z,963.93
2023-03-29T03:59:35.205Z,963.94
2023-03-29T04:00:35.171Z,963.94
2023-03-29T04:01:35.196Z,963.95
2023-03-29T04:02:35.235Z,963.95
2023-03-29T04:03:35.223Z,963.96
2023-03-29T04:04:35.141Z,963.95
2023-03-29T04:05:35.119Z,963.96
2023-03-29T04:06:35.143Z,963.96
2023-03-29T04:07:35.110Z,963.95
2023-03-29T04:08:35.107Z,963.94
2023-03-29T04:09:35.088Z,963.93
2023-03-29T04:10:35.083Z,963.92
2023-03-29T04:11:35.099Z,963.91
2023-03-29T04:12:35.067Z,963.90
2023-03-29T04:13:35.061Z,963.91
2023-03-29T04:14:35.041Z,963.91
2023-03-29T04:15:35.073Z,963.93
2023-03-29T04:16:35.034Z,963.95
2023-03-29T04:17:35.204Z,963.95
2023-03-29T04:18:35.062Z,963.99
2023-03-29T04:19:35.018Z,964.04
2023-03-29T04:20:35.010Z,964.07
2023-03-29T04:21:34.991Z,964.08
2023-03-29T04:22:34.957Z,964.05
2023-03-29T04:23:34.942Z,964.03
2023-03-29T04:24:34.945Z,964.02
2023-03-29T04:25:34.936Z,964.01
2023-03-29T04:26:34.951Z,964.03
2023-03-29T04:27:34.918Z,964.00
2023-03-29T04:28:34.881Z,963.96
2023-03-29T04:29:34.903Z,963.95
2023-03-29T04:30:35.011Z,963.94
2023-03-29T04:31:34.936Z,963.93
2023-03-29T04:32:34.885Z,963.93
2023-03-29T04:33:34.877Z,963.94
2023-03-29T04:34:34.863Z,963.93
2023-03-29T04:35:34.923Z,963.93
2023-03-29T04:36:34.852Z,963.89
2023-03-29T04:37:34.830Z,963.88
2023-03-29T04:38:34.786Z,963.89
2023-03-29T04:39:34.803Z,963.87
2023-03-29T04:40:34.734Z,963.86
2023-03-29T04:41:34.745Z,963.87
2023-03-29T04:42:34.696Z,963.86
2023-03-29T04:43:34.698Z,963.85
2023-03-29T04:44:34.750Z,963.84
2023-03-29T04:45:34.684Z,963.84
2023-03-29T04:46:34.723Z,963.84
2023-03-29T04:47:34.688Z,963.83
2023-03-29T04:48:34.661Z,963.82
2023-03-29T04:49:34.658Z,963.82
2023-03-29T04:50:34.652Z,963.81
2023-03-29T04:51:34.648Z,963.81
2023-03-29T04:52:34.621Z,963.82
2023-03-29T04:53:34.592Z,963.83
2023-03-29T04:54:34.606Z,963.83
2023-03-29T04:55:34.582Z,963.84
2023-03-29T04:56:34.598Z,963.86
2023-03-29T04:57:34.591Z,963.87
2023-03-29T04:58:34.541Z,963.87
2023-03-29T04:59:34.557Z,963.89
2023-03-29T05:00:34.515Z,963.89
2023-03-29T05:01:34.589Z,963.92
2023-03-29T05:02:34.557Z,963.92
2023-03-29T05:03:34.500Z,963.94
2023-03-29T05:04:34.553Z,963.95
2023-03-29T05:05:34.480Z,963.96
2023-03-29T05:06:34.487Z,963.95
2023-03-29T05:07:34.447Z,963.94
2023-03-29T05:08:34.463Z,963.95
2023-03-29T05:09:35.574Z,963.96
2023-03-29T05:10:34.422Z,963.96
2023-03-29T05:11:34.482Z,963.96
2023-03-29T05:12:34.414Z,963.96
2023-03-29T05:13:34.522Z,963.94
2023-03-29T05:14:34.409Z,963.93
2023-03-29T05:15:34.434Z,963.95
2023-03-29T05:16:34.409Z,963.96
2023-03-29T05:17:34.405Z,963.97
2023-03-29T05:18:34.358Z,963.98
2023-03-29T05:19:34.370Z,963.99
2023-03-29T05:20:34.328Z,964.01
2023-03-29T05:21:34.342Z,964.05
2023-03-29T05:22:34.327Z,964.05
2023-03-29T05:23:34.296Z,964.06
2023-03-29T05:24:34.314Z,964.06
2023-03-29T05:25:34.277Z,964.07
2023-03-29T05:26:34.265Z,964.08
2023-03-29T05:27:34.270Z,964.07
2023-03-29T05:28:34.252Z,964.07
2023-03-29T05:29:34.257Z,964.05
2023-03-29T05:30:34.244Z,964.04
2023-03-29T05:31:34.250Z,964.01
2023-03-29T05:32:34.245Z,964.01
2023-03-29T05:33:34.193Z,964.00
2023-03-29T05:34:34.184Z,964.01
2023-03-29T05:35:34.217Z,964.00
2023-03-29T05:36:34.165Z,964.01
2023-03-29T05:37:34.139Z,964.01
2023-03-29T05:38:34.124Z,964.00
2023-03-29T05:39:35.785Z,964.00
2023-03-29T05:40:34.130Z,964.01
2023-03-29T05:41:34.145Z,964.03
2023-03-29T05:42:34.086Z,964.04
2023-03-29T05:43:34.067Z,964.03
2023-03-29T05:44:34.113Z,964.04
2023-03-29T05:45:34.195Z,964.03
2023-03-29T05:46:34.064Z,964.05
2023-03-29T05:47:34.044Z,964.06
2023-03-29T05:48:34.043Z,964.07
2023-03-29T05:49:34.072Z,964.08
2023-03-29T05:50:34.056Z,964.08
2023-03-29T05:51:34.057Z,964.07
2023-03-29T05:52:34.031Z,964.08
2023-03-29T05:53:34.039Z,964.06
2023-03-29T05:54:34.065Z,964.06
2023-03-29T05:55:34.003Z,964.08
2023-03-29T05:56:33.976Z,964.06
2023-03-29T05:57:33.940Z,964.07
2023-03-29T05:58:33.989Z,964.06
2023-03-29T05:59:33.934Z,964.06
2023-03-29T06:00:33.916Z,964.08
2023-03-29T06:01:33.902Z,964.05
2023-03-29T06:02:34.043Z,964.04
2023-03-29T06:03:34.095Z,963.98
2023-03-29T06:04:34.074Z,964.03
2023-03-29T06:05:33.863Z,964.03
2023-03-29T06:06:33.894Z,964.02
2023-03-29T06:07:33.835Z,964.00
2023-03-29T06:08:33.828Z,964.02
2023-03-29T06:09:33.812Z,964.03
2023-03-29T06:10:33.811Z,964.03
2023-03-29T06:11:33.825Z,964.02
2023-03-29T06:12:33.789Z,964.04
2023-03-29T06:13:33.801Z,964.04
2023-03-29T06:14:33.795Z,964.04
2023-03-29T06:15:33.746Z,964.04
2023-03-29T06:16:33.795Z,964.02
2023-03-29T06:17:33.848Z,964.04
2023-03-29T06:18:33.753Z,964.06
2023-03-29T06:19:33.705Z,964.07
2023-03-29T06:20:33.740Z,964.08
2023-03-29T06:21:33.705Z,964.09
2023-03-29T06:22:33.703Z,964.09
2023-03-29T06:23:33.679Z,964.08
2023-03-29T06:24:33.701Z,964.06
2023-03-29T06:25:33.648Z,964.05
2023-03-29T06:26:33.666Z,964.04
2023-03-29T06:27:33.625Z,964.05
2023-03-29T06:28:33.602Z,964.04
2023-03-29T06:29:33.586Z,964.07
2023-03-29T06:30:33.615Z,964.08
2023-03-29T06:31:33.646Z,964.11
2023-03-29T06:32:33.584Z,964.12
2023-03-29T06:33:33.561Z,964.13
2023-03-29T06:34:33.566Z,964.13
2023-03-29T06:35:33.581Z,964.14
2023-03-29T06:36:33.538Z,964.15
2023-03-29T06:37:33.522Z,964.15
2023-03-29T06:38:33.515Z,964.18
2023-03-29T06:39:33.510Z,964.19
2023-03-29T06:40:33.517Z,964.21
2023-03-29T06:41:33.796Z,964.20
2023-03-29T06:42:33.462Z,964.20
2023-03-29T06:43:33.647Z,964.23
2023-03-29T06:44:33.444Z,964.25
2023-03-29T06:45:33.454Z,964.24
2023-03-29T06:46:33.446Z,964.25
2023-03-29T06:47:33.449Z,964.23
2023-03-29T06:48:33.423Z,964.27
2023-03-29T06:49:33.403Z,964.27
2023-03-29T06:50:33.427Z,964.28
2023-03-29T06:51:33.401Z,964.29
2023-03-29T06:52:33.366Z,964.30
2023-03-29T06:53:33.352Z,964.31
2023-03-29T06:54:33.332Z,964.30
2023-03-29T06:55:33.315Z,964.33
2023-03-29T06:56:33.328Z,964.34
2023-03-29T06:57:33.338Z,964.33
2023-03-29T06:58:33.300Z,964.32
2023-03-29T06:59:33.310Z,964.32
2023-03-29T07:00:33.264Z,964.32
2023-03-29T07:01:33.299Z,964.32
2023-03-29T07:02:33.267Z,964.27
2023-03-29T07:03:33.336Z,964.26
2023-03-29T07:04:33.327Z,964.26
2023-03-29T07:05:33.226Z,964.25
2023-03-29T07:06:33.231Z,964.25
2023-03-29T07:07:33.209Z,964.24
2023-03-29T07:08:33.210Z,964.23
2023-03-29T07:09:33.162Z,964.23
2023-03-29T07:10:33.167Z,964.23
2023-03-29T07:11:33.497Z,964.22
2023-03-29T07:12:33.156Z,964.23
2023-03-29T07:13:33.217Z,964.25
2023-03-29T07:14:33.132Z,964.26
2023-03-29T07:15:33.109Z,964.27
2023-03-29T07:16:33.168Z,964.29
2023-03-29T07:17:33.118Z,964.30
2023-03-29T07:18:33.076Z,964.29
2023-03-29T07:19:33.063Z,964.28
2023-03-29T07:20:33.093Z,964.29
2023-03-29T07:21:33.680Z,964.31
2023-03-29T07:22:33.042Z,964.32
2023-03-29T07:23:33.037Z,964.34
2023-03-29T07:24:33.026Z,964.35
2023-03-29T07:25:33.005Z,964.37
2023-03-29T07:26:33.018Z,964.38
2023-03-29T07:27:32.996Z,964.40
2023-03-29T07:28:33.049Z,964.42
2023-03-29T07:29:32.996Z,964.42
2023-03-29T07:30:32.971Z,964.43
2023-03-29T07:31:32.982Z,964.44
2023-03-29T07:32:32.982Z,964.45
2023-03-29T07:33:33.106Z,964.48
2023-03-29T07:34:32.922Z,964.51
2023-03-29T07:35:33.017Z,964.51
2023-03-29T07:36:32.927Z,964.54
2023-03-29T07:37:32.884Z,964.55
2023-03-29T07:38:32.885Z,964.57
2023-03-29T07:39:32.848Z,964.60
2023-03-29T07:40:32.899Z,964.62
2023-03-29T07:41:32.850Z,964.64
2023-03-29T07:42:32.845Z,964.66
2023-03-29T07:43:32.807Z,964.66
2023-03-29T07:44:32.827Z,964.65
2023-03-29T07:45:32.901Z,964.65
2023-03-29T07:46:32.801Z,964.65
2023-03-29T07:47:32.795Z,964.67
2023-03-29T07:48:32.806Z,964.68
2023-03-29T07:49:32.768Z,964.68
2023-03-29T07:50:32.777Z,964.68
2023-03-29T07:51:32.781Z,964.69
2023-03-29T07:52:32.744Z,964.72
2023-03-29T07:53:32.713Z,964.73
2023-03-29T07:54:32.721Z,964.71
2023-03-29T07:55:32.703Z,964.70
2023-03-29T07:56:32.721Z,964.72
2023-03-29T07:57:32.683Z,964.73
2023-03-29T07:58:32.683Z,964.73
2023-03-29T07:59:32.659Z,964.73
2023-03-29T08:00:32.733Z,964.74
2023-03-29T08:01:32.688Z,964.73
2023-03-29T08:02:32.653Z,964.70
2023-03-29T08:03:32.662Z,964.69
2023-03-29T08:04:32.731Z,964.67
2023-03-29T08:05:40.910Z,964.66
2023-03-29T08:06:32.590Z,964.65
2023-03-29T08:07:32.558Z,964.65
2023-03-29T08:08:32.595Z,964.64
2023-03-29T08:09:32.563Z,964.64
2023-03-29T08:10:32.566Z,964.62
2023-03-29T08:11:32.545Z,964.60
2023-03-29T08:12:32.553Z,964.60
2023-03-29T08:13:32.548Z,964.60
2023-03-29T08:14:32.504Z,964.57
2023-03-29T08:15:32.488Z,964.56
2023-03-29T08:16:32.536Z,964.57
2023-03-29T08:17:32.515Z,964.59
2023-03-29T08:18:34.673Z,964.59
2023-03-29T08:19:32.510Z,964.59
2023-03-29T08:20:32.452Z,964.60
2023-03-29T08:21:32.453Z,964.61
2023-03-29T08:22:32.442Z,964.61
2023-03-29T08:23:32.475Z,964.61
2023-03-29T08:24:32.394Z,964.60
2023-03-29T08:25:32.396Z,964.59
2023-03-29T08:26:32.403Z,964.62
2023-03-29T08:27:32.407Z,964.63
2023-03-29T08:28:32.360Z,964.64
2023-03-29T08:29:32.382Z,964.66
2023-03-29T08:30:32.344Z,964.68
2023-03-29T08:31:32.384Z,964.67
2023-03-29T08:32:32.336Z,964.66
2023-03-29T08:33:32.352Z,964.66
2023-03-29T08:34:32.320Z,964.67
2023-03-29T08:35:32.364Z,964.67
2023-03-29T08:36:32.283Z,964.67
2023-03-29T08:37:32.257Z,964.66
2023-03-29T08:38:32.273Z,964.67
2023-03-29T08:39:32.246Z,964.67
2023-03-29T08:40:32.252Z,964.68
2023-03-29T08:41:32.251Z,964.68
2023-03-29T08:42:32.213Z,964.68
2023-03-29T08:43:32.204Z,964.67
2023-03-29T08:44:32.195Z,964.66
2023-03-29T08:45:32.187Z,964.64
2023-03-29T08:46:35.363Z,964.59
2023-03-29T08:47:32.198Z,964.60
2023-03-29T08:48:32.150Z,964.59
2023-03-29T08:49:32.136Z,964.60
2023-03-29T08:50:32.126Z,964.60
2023-03-29T08:51:32.146Z,964.58
2023-03-29T08:52:32.139Z,964.59
2023-03-29T08:53:32.097Z,964.60
2023-03-29T08:54:32.118Z,964.59
2023-03-29T08:55:32.068Z,964.59
2023-03-29T08:56:34.146Z,964.59
2023-03-29T08:57:32.095Z,964.60
2023-03-29T08:58:32.042Z,964.59
2023-03-29T08:59:32.097Z,964.59
2023-03-29T09:00:32.046Z,964.60
2023-03-29T09:01:32.134Z,964.60
2023-03-29T09:02:32.356Z,964.62
2023-03-29T09:03:32.117Z,964.62
2023-03-29T09:04:31.997Z,964.60
2023-03-29T09:05:31.994Z,964.60
2023-03-29T09:06:31.980Z,964.61
2023-03-29T09:07:31.966Z,964.61
2023-03-29T09:08:31.984Z,964.60
2023-03-29T09:09:31.925Z,964.60
2023-03-29T09:10:31.929Z,964.60
2023-03-29T09:11:31.911Z,964.58
2023-03-29T09:12:31.913Z,964.56
2023-03-29T09:13:31.963Z,964.54
2023-03-29T09:14:31.899Z,964.51
2023-03-29T09:15:31.881Z,964.49
2023-03-29T09:16:31.923Z,964.48
2023-03-29T09:17:31.894Z,964.49
2023-03-29T09:18:31.860Z,964.48
2023-03-29T09:19:31.843Z,964.48
2023-03-29T09:20:31.881Z,964.48
2023-03-29T09:21:31.817Z,964.49
2023-03-29T09:22:31.808Z,964.47
2023-03-29T09:23:31.781Z,964.47
2023-03-29T09:24:31.792Z,964.48
2023-03-29T09:25:36.253Z,964.48
2023-03-29T09:26:31.804Z,964.48
2023-03-29T09:27:31.748Z,964.45
2023-03-29T09:28:31.770Z,964.42
2023-03-29T09:29:31.748Z,964.41
2023-03-29T09:30:31.706Z,964.38
2023-03-29T09:31:31.791Z,964.36
2023-03-29T09:32:31.861Z,964.34
2023-03-29T09:33:31.708Z,964.31
2023-03-29T09:34:31.708Z,964.30
2023-03-29T09:35:31.701Z,964.30
2023-03-29T09:36:31.650Z,964.31
2023-03-29T09:37:31.665Z,964.29
2023-03-29T09:38:31.635Z,964.28
2023-03-29T09:39:31.643Z,964.26
2023-03-29T09:40:31.642Z,964.26
2023-03-29T09:41:31.610Z,964.26
2023-03-29T09:42:31.616Z,964.26
2023-03-29T09:43:31.678Z,964.28
2023-03-29T09:44:31.796Z,964.28
2023-03-29T09:45:31.639Z,964.29
2023-03-29T09:46:31.651Z,964.27
2023-03-29T09:47:31.584Z,964.27
2023-03-29T09:48:31.541Z,964.27
2023-03-29T09:49:31.570Z,964.25
2023-03-29T09:50:32.371Z,964.28
2023-03-29T09:51:31.500Z,964.29
2023-03-29T09:52:31.551Z,964.30
2023-03-29T09:53:31.510Z,964.29
2023-03-29T09:54:31.513Z,964.28
2023-03-29T09:55:31.526Z,964.24
2023-03-29T09:56:31.450Z,964.23
2023-03-29T09:57:31.498Z,964.23
2023-03-29T09:58:31.461Z,964.26
2023-03-29T09:59:31.465Z,964.27
2023-03-29T10:00:31.432Z,964.28
2023-03-29T10:01:31.416Z,964.26
2023-03-29T10:02:31.531Z,964.27
2023-03-29T10:03:31.383Z,964.27
2023-03-29T10:04:31.404Z,964.24
2023-03-29T10:05:31.363Z,964.21
2023-03-29T10:06:31.363Z,964.21
2023-03-29T10:07:31.373Z,964.21
2023-03-29T10:08:31.376Z,964.20
2023-03-29T10:09:31.320Z,964.19
2023-03-29T10:10:31.309Z,964.22
2023-03-29T10:11:31.333Z,964.20
2023-03-29T10:12:31.679Z,964.17
2023-03-29T10:13:31.279Z,964.14
2023-03-29T10:14:31.259Z,964.16
2023-03-29T10:15:31.259Z,964.18
2023-03-29T10:16:31.277Z,964.21
2023-03-29T10:17:31.343Z,964.23
2023-03-29T10:18:31.234Z,964.22
2023-03-29T10:19:31.238Z,964.23
2023-03-29T10:20:31.226Z,964.21
2023-03-29T10:21:31.203Z,964.19
2023-03-29T10:22:31.209Z,964.17
2023-03-29T10:23:31.205Z,964.17
2023-03-29T10:24:31.198Z,964.17
2023-03-29T10:25:31.158Z,964.20
2023-03-29T10:26:31.161Z,964.19
2023-03-29T10:27:31.148Z,964.17
2023-03-29T10:28:31.118Z,964.14
2023-03-29T10:29:31.131Z,964.13
2023-03-29T10:30:31.100Z,964.15
2023-03-29T10:31:31.183Z,964.14
2023-03-29T10:32:31.118Z,964.11
2023-03-29T10:33:31.077Z,964.11
2023-03-29T10:34:31.054Z,964.13
2023-03-29T10:35:31.081Z,964.16
2023-03-29T10:36:31.031Z,964.14
2023-03-29T10:37:31.042Z,964.13
2023-03-29T10:38:31.016Z,964.09
2023-03-29T10:39:31.013Z,964.07
2023-03-29T10:40:31.014Z,964.03
2023-03-29T10:41:30.982Z,964.00
2023-03-29T10:42:31.013Z,963.94
2023-03-29T10:43:30.986Z,963.90
2023-03-29T10:44:32.899Z,963.89
2023-03-29T10:45:30.965Z,963.88
2023-03-29T10:46:30.972Z,963.86
2023-03-29T10:47:31.005Z,963.87
2023-03-29T10:48:31.082Z,963.86
2023-03-29T10:49:30.968Z,963.87
2023-03-29T10:50:30.913Z,963.86
2023-03-29T10:51:30.907Z,963.91
2023-03-29T10:52:30.877Z,963.89
2023-03-29T10:53:30.899Z,963.93
2023-03-29T10:54:30.850Z,963.92
2023-03-29T10:55:30.877Z,963.86
2023-03-29T10:56:30.848Z,963.81
2023-03-29T10:57:30.909Z,963.78
2023-03-29T10:58:30.825Z,963.77
2023-03-29T10:59:30.798Z,963.75
2023-03-29T11:00:30.873Z,963.73
2023-03-29T11:01:30.861Z,963.72
2023-03-29T11:02:30.909Z,963.72
2023-03-29T11:03:30.858Z,963.70
2023-03-29T11:04:30.804Z,963.71
2023-03-29T11:05:30.756Z,963.70
2023-03-29T11:06:30.713Z,963.65
2023-03-29T11:07:30.727Z,963.64
2023-03-29T11:08:31.916Z,963.62
2023-03-29T11:09:30.711Z,963.63
2023-03-29T11:10:30.754Z,963.61
2023-03-29T11:11:30.681Z,963.61
2023-03-29T11:12:30.681Z,963.58
2023-03-29T11:13:30.658Z,963.55
2023-03-29T11:14:30.656Z,963.51
2023-03-29T11:15:30.697Z,963.51
2023-03-29T11:16:30.665Z,963.42
2023-03-29T11:17:30.647Z,963.49
2023-03-29T11:18:30.661Z,963.50
2023-03-29T11:19:30.612Z,963.48
2023-03-29T11:20:30.582Z,963.50
2023-03-29T11:21:30.598Z,963.53
2023-03-29T11:22:30.573Z,963.60
2023-03-29T11:23:30.563Z,963.54
2023-03-29T11:24:30.576Z,963.58
2023-03-29T11:25:30.543Z,963.59
2023-03-29T11:26:30.561Z,963.58
2023-03-29T11:27:30.521Z,963.64
2023-03-29T11:28:30.497Z,963.69
2023-03-29T11:29:30.506Z,963.59
2023-03-29T11:30:30.494Z,963.62
2023-03-29T11:31:30.507Z,963.69
2023-03-29T11:32:30.464Z,963.70
2023-03-29T11:33:30.451Z,963.68
2023-03-29T11:34:30.439Z,963.72
2023-03-29T11:35:30.480Z,963.69
2023-03-29T11:36:30.413Z,963.73
2023-03-29T11:37:30.456Z,963.75
2023-03-29T11:38:30.434Z,963.76
2023-03-29T11:39:30.393Z,963.80
2023-03-29T11:40:30.388Z,963.77
2023-03-29T11:41:30.420Z,963.68
2023-03-29T11:42:30.369Z,963.75
2023-03-29T11:43:30.369Z,963.73
2023-03-29T11:44:30.339Z,963.74
2023-03-29T11:45:30.324Z,963.76
2023-03-29T11:46:30.345Z,963.69
2023-03-29T11:47:30.336Z,963.70
2023-03-29T11:48:30.303Z,963.69
2023-03-29T11:49:30.324Z,963.73
2023-03-29T11:50:30.256Z,963.79
2023-03-29T11:51:30.293Z,963.69
2023-03-29T11:52:30.238Z,963.77
2023-03-29T11:53:30.341Z,963.65
2023-03-29T11:54:30.242Z,963.70
2023-03-29T11:55:30.239Z,963.65
2023-03-29T11:56:30.211Z,963.66
2023-03-29T11:57:30.328Z,963.70
2023-03-29T11:58:30.194Z,963.68
2023-03-29T11:59:30.198Z,963.68
2023-03-29T12:00:30.179Z,963.68
2023-03-29T12:01:30.147Z,963.73
2023-03-29T12:02:30.203Z,963.70
2023-03-29T12:03:30.273Z,963.66
2023-03-29T12:04:30.223Z,963.74
2023-03-29T12:05:30.116Z,963.70
2023-03-29T12:06:30.122Z,963.72
2023-03-29T12:07:30.151Z,963.76
2023-03-29T12:08:30.190Z,963.75
2023-03-29T12:09:30.089Z,963.78
2023-03-29T12:10:30.125Z,963.75
2023-03-29T12:11:30.126Z,963.71
2023-03-29T12:12:30.024Z,963.69
2023-03-29T12:13:30.057Z,963.70
2023-03-29T12:14:30.104Z,963.66
2023-03-29T12:15:30.018Z,963.69
2023-03-29T12:16:30.059Z,963.69
2023-03-29T12:17:30.013Z,963.63
2023-03-29T12:18:30.211Z,963.61
2023-03-29T12:19:29.961Z,963.63
2023-03-29T12:20:29.965Z,963.62
2023-03-29T12:21:29.995Z,963.60
2023-03-29T12:22:29.944Z,963.62
2023-03-29T12:23:29.939Z,963.62
2023-03-29T12:24:29.926Z,963.64
2023-03-29T12:25:29.898Z,963.63
2023-03-29T12:26:29.887Z,963.64
2023-03-29T12:27:29.914Z,963.62
2023-03-29T12:28:29.911Z,963.60